Time;durP1;ratioP1;P1;durP2;ratioP2;P2;SDS_P1;SDS_P2;PMS_P1;PMS_P2;Temp;Humidity;BMP_temperature;BMP_pressure;BME280_temperature;BME280_humidity;BME280_pressure;Samples;Min_cycle;Max_cycle;Signal;HPM_P1;HPM_P2
2023/03/22 19:32:10;;;;;;;33.90;21.30;;;;;;;10.84;100.00;98264.35;112270;1280;959537;-83
2023/03/22 19:35:13;;;;;;;30.40;20.80;;;;;;;10.84;100.00;98265.27;131581;1288;22569;-85
2023/03/22 19:38:16;;;;;;;26.70;18.70;;;;;;;10.85;100.00;98264.95;131896;1288;22602;-83
2023/03/22 19:41:19;;;;;;;31.50;19.40;;;;;;;10.86;100.00;98265.92;131678;1288;23414;-87
2023/03/22 19:44:22;;;;;;;31.10;20.70;;;;;;;10.85;100.00;98264.11;131892;1288;24360;-88
2023/03/22 19:47:25;;;;;;;31.70;20.20;;;;;;;10.81;100.00;98264.79;132031;1288;22552;-85
2023/03/22 19:50:29;;;;;;;34.00;21.70;;;;;;;10.76;100.00;98264.49;132029;1288;22543;-85
2023/03/22 19:53:32;;;;;;;31.30;19.90;;;;;;;10.71;100.00;98262.86;132106;1280;22684;-85
2023/03/22 19:56:35;;;;;;;34.30;20.10;;;;;;;10.65;100.00;98256.09;131995;1288;24040;-85
2023/03/22 19:59:38;;;;;;;27.20;18.90;;;;;;;10.63;100.00;98258.02;132093;1288;25321;-83
2023/03/22 20:02:41;;;;;;;30.30;17.80;;;;;;;10.60;100.00;98259.36;132733;1288;22582;-89
2023/03/22 20:05:44;;;;;;;28.10;18.20;;;;;;;10.58;100.00;98259.21;133692;1288;22813;-83
2023/03/22 20:08:47;;;;;;;28.00;18.00;;;;;;;10.58;100.00;98258.09;134452;1288;22549;-85
2023/03/22 20:11:49;;;;;;;26.10;18.20;;;;;;;10.55;100.00;98258.91;133077;1288;25461;-84
2023/03/22 20:14:52;;;;;;;26.50;17.10;;;;;;;10.50;100.00;98259.13;131745;1288;22629;-86
2023/03/22 20:17:55;;;;;;;23.40;17.20;;;;;;;10.45;100.00;98254.77;132221;1288;23321;-84
2023/03/22 20:20:59;;;;;;;24.70;17.50;;;;;;;10.37;100.00;98254.18;132046;1288;24788;-86
2023/03/22 20:24:02;;;;;;;23.70;16.40;;;;;;;10.28;100.00;98251.77;131897;1288;22596;-84
2023/03/22 20:27:06;;;;;;;23.00;16.20;;;;;;;10.22;100.00;98249.70;131861;1288;23293;-83
2023/03/22 20:30:09;;;;;;;25.10;17.00;;;;;;;10.17;100.00;98249.37;131956;1288;22791;-83
2023/03/22 20:33:12;;;;;;;26.10;17.10;;;;;;;10.14;100.00;98247.88;131929;1287;23823;-87
2023/03/22 20:36:15;;;;;;;29.10;18.00;;;;;;;10.10;100.00;98250.02;131924;1288;25501;-85
2023/03/22 20:39:18;;;;;;;27.30;16.80;;;;;;;10.03;100.00;98248.21;131940;1288;22557;-86
2023/03/22 20:42:21;;;;;;;26.30;17.70;;;;;;;9.95;100.00;98252.45;131947;1288;22644;-85
2023/03/22 20:45:24;;;;;;;26.80;17.70;;;;;;;9.86;100.00;98256.14;131945;1288;23024;-84
2023/03/22 20:48:27;;;;;;;25.60;16.00;;;;;;;9.77;100.00;98259.43;131932;1288;22590;-86
2023/03/22 20:51:31;;;;;;;26.60;15.80;;;;;;;9.71;100.00;98258.04;131949;1269;25284;-84
2023/03/22 20:54:34;;;;;;;24.70;16.80;;;;;;;9.66;100.00;98255.84;131963;1288;24231;-83
2023/03/22 20:57:37;;;;;;;26.30;17.00;;;;;;;9.62;100.00;98253.33;131671;1288;25429;-84
2023/03/22 21:00:39;;;;;;;29.60;18.50;;;;;;;9.60;100.00;98249.03;131631;1288;22554;-83
2023/03/22 21:03:42;;;;;;;27.60;18.20;;;;;;;9.57;100.00;98253.61;131811;1288;22546;-84
2023/03/22 21:06:47;;;;;;;29.70;20.10;;;;;;;9.52;100.00;98250.02;134945;1288;22588;-82
2023/03/22 21:09:50;;;;;;;30.30;20.70;;;;;;;9.47;100.00;98250.13;134779;1288;24731;-83
2023/03/22 21:12:53;;;;;;;30.10;19.40;;;;;;;9.43;100.00;98249.77;131726;1280;22582;-84
2023/03/22 21:15:56;;;;;;;29.90;19.90;;;;;;;9.40;100.00;98246.26;131692;1288;22578;-84
2023/03/22 21:18:58;;;;;;;30.50;20.00;;;;;;;9.38;100.00;98247.33;131989;1283;25276;-84
2023/03/22 21:22:01;;;;;;;38.00;22.70;;;;;;;9.37;100.00;98248.56;131858;1289;23010;-84
2023/03/22 21:25:04;;;;;;;32.80;22.00;;;;;;;9.35;100.00;98246.70;131874;1288;22554;-84
2023/03/22 21:28:08;;;;;;;37.10;21.40;;;;;;;9.31;100.00;98248.08;131879;1288;23367;-84
2023/03/22 21:31:12;;;;;;;35.20;22.90;;;;;;;9.24;100.00;98249.34;131856;1289;22669;-85
2023/03/22 21:34:15;;;;;;;33.40;21.30;;;;;;;9.15;100.00;98251.46;131853;1289;24458;-85
2023/03/22 21:37:17;;;;;;;33.40;21.80;;;;;;;9.10;100.00;98250.91;131872;1288;24435;-86
2023/03/22 21:40:20;;;;;;;31.10;20.60;;;;;;;9.06;100.00;98249.22;131865;1288;25585;-85
2023/03/22 21:43:24;;;;;;;35.20;23.40;;;;;;;9.03;100.00;98249.70;131904;1288;22536;-85
2023/03/22 21:46:36;;;;;;;33.60;21.00;;;;;;;9.00;100.00;98249.63;131914;1283;22596;-85
2023/03/22 21:49:40;;;;;;;34.20;22.60;;;;;;;8.96;100.00;98251.14;131943;1288;22537;-86
2023/03/22 21:52:43;;;;;;;31.60;21.80;;;;;;;8.90;100.00;98248.92;131894;1288;22616;-85
2023/03/22 21:55:48;;;;;;;32.30;21.30;;;;;;;8.83;100.00;98249.86;131909;1288;25322;-85
2023/03/22 21:58:51;;;;;;;32.30;21.40;;;;;;;8.78;100.00;98249.23;131930;1288;22593;-85
2023/03/22 22:01:54;;;;;;;34.90;20.90;;;;;;;8.76;100.00;98248.23;131989;1288;25966;-85
2023/03/22 22:04:57;;;;;;;29.70;20.50;;;;;;;8.76;100.00;98244.25;132830;1288;22567;-84
2023/03/22 22:08:00;;;;;;;36.00;21.10;;;;;;;8.75;100.00;98244.49;135719;1288;22570;-82
2023/03/22 22:11:04;;;;;;;31.30;21.30;;;;;;;8.74;100.00;98247.65;134223;1288;24434;-86
2023/03/22 22:14:06;;;;;;;34.90;22.30;;;;;;;8.73;100.00;98246.52;132018;1288;22904;-85
2023/03/22 22:17:09;;;;;;;31.30;20.40;;;;;;;8.70;100.00;98245.80;131913;1288;25388;-85
2023/03/22 22:20:13;;;;;;;30.90;20.50;;;;;;;8.69;100.00;98240.56;131950;1288;22539;-84
2023/03/22 22:23:16;;;;;;;32.70;21.90;;;;;;;8.70;100.00;98241.70;131971;1289;22507;-85
2023/03/22 22:26:18;;;;;;;31.00;21.10;;;;;;;8.71;100.00;98242.04;132150;1280;22503;-85
2023/03/22 22:29:21;;;;;;;33.50;22.40;;;;;;;8.72;100.00;98243.69;132471;1289;24312;-85
2023/03/22 22:32:24;;;;;;;36.00;23.20;;;;;;;8.72;100.00;98240.04;132190;1288;22560;-85
2023/03/22 22:35:27;;;;;;;34.40;23.30;;;;;;;8.70;100.00;98239.96;131903;1289;22582;-84
2023/03/22 22:38:30;;;;;;;35.30;23.00;;;;;;;8.66;100.00;98238.86;132052;1289;25596;-85
2023/03/22 22:41:33;;;;;;;31.30;21.60;;;;;;;8.64;100.00;98230.91;132440;1289;22603;-85
2023/03/22 22:44:36;;;;;;;34.00;22.50;;;;;;;8.63;100.00;98237.48;132253;1289;22680;-85
2023/03/22 22:47:39;;;;;;;36.90;24.90;;;;;;;8.62;100.00;98234.11;131919;1288;24841;-84
2023/03/22 22:50:41;;;;;;;37.30;24.50;;;;;;;8.60;100.00;98231.84;131985;1288;22649;-84
2023/03/22 22:53:46;;;;;;;36.90;23.90;;;;;;;8.56;100.00;98229.00;132119;1289;24218;-84
2023/03/22 22:56:49;;;;;;;38.00;24.70;;;;;;;8.49;100.00;98229.79;132124;1288;22539;-84
2023/03/22 22:59:51;;;;;;;37.70;23.80;;;;;;;8.43;100.00;98232.30;132071;1288;22555;-84
2023/03/22 23:02:54;;;;;;;33.10;22.10;;;;;;;8.37;100.00;98228.27;131945;1288;22956;-84
2023/03/22 23:05:57;;;;;;;36.80;23.50;;;;;;;8.35;100.00;98226.27;133791;1288;23057;-85
2023/03/22 23:09:00;;;;;;;36.10;23.00;;;;;;;8.33;100.00;98226.27;135293;1289;22640;-85
2023/03/22 23:12:03;;;;;;;38.70;25.30;;;;;;;8.34;100.00;98225.02;133132;1288;22685;-84
2023/03/22 23:15:06;;;;;;;35.20;25.60;;;;;;;8.33;100.00;98222.13;131972;1288;24050;-84
2023/03/22 23:18:12;;;;;;;34.60;23.50;;;;;;;8.32;100.00;98221.70;131934;1288;22645;-85
2023/03/22 23:21:17;;;;;;;35.90;24.40;;;;;;;8.30;100.00;98220.73;131950;1289;22982;-83
2023/03/22 23:24:19;;;;;;;31.70;23.30;;;;;;;8.31;100.00;98220.39;131639;1288;24247;-83
2023/03/22 23:27:24;;;;;;;38.30;24.70;;;;;;;8.34;100.00;98220.66;131588;1289;25499;-83
2023/03/22 23:30:27;;;;;;;37.10;23.30;;;;;;;8.38;100.00;98223.85;131610;1282;24268;-83
2023/03/22 23:33:30;;;;;;;36.90;23.60;;;;;;;8.42;100.00;98220.89;131617;1277;24398;-83
2023/03/22 23:36:33;;;;;;;31.70;23.40;;;;;;;8.45;100.00;98218.45;131692;1285;22686;-83
2023/03/22 23:39:36;;;;;;;35.60;24.40;;;;;;;8.46;100.00;98218.85;131595;1289;22655;-83
2023/03/22 23:42:39;;;;;;;36.30;24.30;;;;;;;8.46;100.00;98221.70;131641;1286;22546;-84
2023/03/22 23:45:43;;;;;;;32.80;22.20;;;;;;;8.46;100.00;98221.79;131853;1277;22782;-84
2023/03/22 23:48:46;;;;;;;37.30;22.70;;;;;;;8.49;100.00;98220.29;131963;1288;23930;-85
2023/03/22 23:51:49;;;;;;;35.10;23.10;;;;;;;8.51;100.00;98218.86;131913;1288;23294;-85
2023/03/22 23:54:52;;;;;;;34.80;24.30;;;;;;;8.51;100.00;98222.42;131907;1289;25330;-85
2023/03/22 23:57:55;;;;;;;38.30;25.10;;;;;;;8.50;100.00;98221.23;131896;1289;24291;-84
